Ansley, Mississippi
Current Conditions -  °F | °C
As of 2:55 PM on Thursday 20 Nov 2014 (Local Time) from KHSA Reporting Station
Scattered Clouds Scattered Clouds  
Wind Chill: 66°   Ceiling: Unl
Heat Index: 66°   Visibility: 10mi
Dew Point: 34°   Wind: 12mph
Humidity: 30%   Direction: 150°SSE
Pressure: 30.21"   Gusts: 17mph
Location:  30.2253°N, 89.4838°W
Report Text: KHSA 202055Z 15010G15KT 10SM SCT055 19/01 A3021
Loading
Personal Weather Stations






























Interactive Weather Map New forecast layout! Learn more

10-Day Weather Forecast

Advertisements
Track Severe Weather on mobile